Time;durP1;ratioP1;P1;durP2;ratioP2;P2;SDS_P1;SDS_P2;PMS_P1;PMS_P2;Temp;Humidity;BMP_temperature;BMP_pressure;BME280_temperature;BME280_humidity;BME280_pressure;Samples;Min_cycle;Max_cycle;Signal;HPM_P1;HPM_P2
2022/05/14 00:03:25;;;;;;;;;;;;;;;;;;8364999;28;27479;-65
2022/05/14 00:07:25;;;;;;;;;;;;;;;;;;8370597;28;27429;-65
2022/05/14 00:15:44;;;;;;;;;;;;;;;;;;8363025;28;27499;-65
2022/05/14 00:19:46;;;;;;;;;;;;;;;;;;8378152;28;27355;-65
2022/05/14 00:23:47;;;;;;;;;;;;;;;;;;8373962;28;27897;-65
2022/05/14 00:27:48;;;;;;;;;;;;;;;;;;8366032;28;27668;-64
2022/05/14 00:31:48;;;;;;;;;;;;;;;;;;8367797;28;27673;-65
2022/05/14 00:35:49;;;;;;;;;;;;;;;;;;8367891;28;27877;-65
2022/05/14 00:39:49;;;;;;;;;;;;;;;;;;8374165;28;27900;-65
2022/05/14 00:43:49;;;;;;;;;;;;;;;;;;8366167;28;27679;-65
2022/05/14 00:47:49;;;;;;;;;;;;;;;;;;8364978;28;28106;-65
2022/05/14 00:51:49;;;;;;;;;;;;;;;;;;8367965;28;27633;-65
2022/05/14 00:55:49;;;;;;;;;;;;;;;;;;8365627;28;27559;-65
2022/05/14 00:59:49;;;;;;;;;;;;;;;;;;8370655;28;28075;-65
2022/05/14 01:03:49;;;;;;;;;;;;;;;;;;8368240;28;27447;-65
2022/05/14 01:07:50;;;;;;;;;;;;;;;;;;8370802;28;27773;-65
2022/05/14 01:11:50;;;;;;;;;;;;;;;;;;8366040;28;27573;-65
2022/05/14 01:15:50;;;;;;;;;;;;;;;;;;8366965;28;27823;-65
2022/05/14 01:19:50;;;;;;;;;;;;;;;;;;8370277;28;29865;-65
2022/05/14 01:28:09;;;;;;;;;;;;;;;;;;8366478;28;28195;-65
2022/05/14 01:32:09;;;;;;;;;;;;;;;;;;8367204;28;28042;-65
2022/05/14 01:36:09;;;;;;;;;;;;;;;;;;8363659;28;27740;-65
2022/05/14 01:40:09;;;;;;;;;;;;;;;;;;8368137;28;27711;-65
2022/05/14 01:44:10;;;;;;;;;;;;;;;;;;8366399;28;28760;-65
2022/05/14 01:48:10;;;;;;;;;;;;;;;;;;8363062;28;27315;-65
2022/05/14 01:52:10;;;;;;;;;;;;;;;;;;8366535;28;28500;-65
2022/05/14 01:56:10;;;;;;;;;;;;;;;;;;8368925;28;27294;-65
2022/05/14 02:00:10;;;;;;;;;;;;;;;;;;8372917;28;27324;-65
2022/05/14 02:04:10;;;;;;;;;;;;;;;;;;8368514;28;27476;-65
2022/05/14 02:08:10;;;;;;;;;;;;;;;;;;8374705;28;27441;-65
2022/05/14 02:12:10;;;;;;;;;;;;;;;;;;8369607;28;27761;-65
2022/05/14 02:16:10;;;;;;;;;;;;;;;;;;8374531;28;27946;-65
2022/05/14 02:20:10;;;;;;;;;;;;;;;;;;8372674;28;27225;-65
2022/05/14 02:24:11;;;;;;;;;;;;;;;;;;8368408;28;27692;-65
2022/05/14 02:28:11;;;;;;;;;;;;;;;;;;8370924;28;27513;-65
2022/05/14 02:32:11;;;;;;;;;;;;;;;;;;8369606;28;28215;-65
2022/05/14 02:36:11;;;;;;;;;;;;;;;;;;8368115;28;27516;-65
2022/05/14 02:40:11;;;;;;;;;;;;;;;;;;8370190;28;28703;-65
2022/05/14 02:44:11;;;;;;;;;;;;;;;;;;8369206;28;27929;-65
2022/05/14 02:48:11;;;;;;;;;;;;;;;;;;8372827;28;28395;-65
2022/05/14 02:52:11;;;;;;;;;;;;;;;;;;8371896;28;27681;-65
2022/05/14 02:56:12;;;;;;;;;;;;;;;;;;8370424;28;27952;-65
2022/05/14 03:00:12;;;;;;;;;;;;;;;;;;8373258;28;27392;-65
2022/05/14 03:04:12;;;;;;;;;;;;;;;;;;8368961;28;27605;-65
2022/05/14 03:08:12;;;;;;;;;;;;;;;;;;8374602;28;27775;-65
2022/05/14 03:12:12;;;;;;;;;;;;;;;;;;8373774;28;27337;-65
2022/05/14 03:16:12;;;;;;;;;;;;;;;;;;8370616;28;28279;-65
2022/05/14 03:20:12;;;;;;;;;;;;;;;;;;8374011;28;27250;-65
2022/05/14 03:24:13;;;;;;;;;;;;;;;;;;8372025;28;27661;-65
2022/05/14 03:28:13;;;;;;;;;;;;;;;;;;8373730;28;27266;-65
2022/05/14 03:32:13;;;;;;;;;;;;;;;;;;8369693;28;28833;-65
2022/05/14 03:36:13;;;;;;;;;;;;;;;;;;8367534;28;27857;-65
2022/05/14 03:40:13;;;;;;;;;;;;;;;;;;8366997;28;27524;-65
2022/05/14 03:44:13;;;;;;;;;;;;;;;;;;8367824;28;27213;-65
2022/05/14 03:48:14;;;;;;;;;;;;;;;;;;8371547;28;27372;-65
2022/05/14 03:52:14;;;;;;;;;;;;;;;;;;8368165;28;27878;-65
2022/05/14 03:56:14;;;;;;;;;;;;;;;;;;8368975;28;27688;-65
2022/05/14 04:00:14;;;;;;;;;;;;;;;;;;8372099;28;27524;-65
2022/05/14 04:04:15;;;;;;;;;;;;;;;;;;8370708;28;27229;-64
2022/05/14 04:08:15;;;;;;;;;;;;;;;;;;8375838;28;29704;-64
2022/05/14 04:12:15;;;;;;;;;;;;;;;;;;8369172;28;27506;-64
2022/05/14 04:16:15;;;;;;;;;;;;;;;;;;8366317;28;27331;-65
2022/05/14 04:20:15;;;;;;;;;;;;;;;;;;8373170;28;28660;-65
2022/05/14 04:24:15;;;;;;;;;;;;;;;;;;8366939;28;27780;-65
2022/05/14 04:28:16;;;;;;;;;;;;;;;;;;8368274;28;27983;-65
2022/05/14 04:32:16;;;;;;;;;;;;;;;;;;8370795;28;28548;-65
2022/05/14 04:36:16;;;;;;;;;;;;;;;;;;8364424;28;27154;-65
2022/05/14 04:40:16;;;;;;;;;;;;;;;;;;8370352;28;27625;-65
2022/05/14 04:44:16;;;;;;;;;;;;;;;;;;8367956;28;27782;-65
2022/05/14 04:48:16;;;;;;;;;;;;;;;;;;8368945;28;28643;-65
2022/05/14 04:52:16;;;;;;;;;;;;;;;;;;8365946;28;27274;-65
2022/05/14 04:56:16;;;;;;;;;;;;;;;;;;8366934;28;27412;-66
2022/05/14 05:00:17;;;;;;;;;;;;;;;;;;8370820;28;27660;-65
2022/05/14 05:04:17;;;;;;;;;;;;;;;;;;8368098;28;27350;-65
2022/05/14 05:08:17;;;;;;;;;;;;;;;;;;8365947;28;27666;-65
2022/05/14 05:12:17;;;;;;;;;;;;;;;;;;8365225;28;28534;-65
2022/05/14 05:16:17;;;;;;;;;;;;;;;;;;8364348;28;27428;-65
2022/05/14 05:20:17;;;;;;;;;;;;;;;;;;8368511;28;27545;-65
2022/05/14 05:24:17;;;;;;;;;;;;;;;;;;8368626;28;28089;-65
2022/05/14 05:28:18;;;;;;;;;;;;;;;;;;8369777;28;27562;-65
2022/05/14 05:32:18;;;;;;;;;;;;;;;;;;8366043;28;27852;-64
2022/05/14 05:36:18;;;;;;;;;;;;;;;;;;8365247;28;27681;-65
2022/05/14 05:40:18;;;;;;;;;;;;;;;;;;8366942;28;28089;-65
2022/05/14 05:44:18;;;;;;;;;;;;;;;;;;8366917;28;27895;-65
2022/05/14 05:48:18;;;;;;;;;;;;;;;;;;8370005;28;27672;-65
2022/05/14 05:52:18;;;;;;;;;;;;;;;;;;8365780;28;27467;-65
2022/05/14 06:00:37;;;;;;;;;;;;;;;;;;8366870;28;27271;-65
2022/05/14 06:04:38;;;;;;;;;;;;;;;;;;8365956;28;27949;-65
2022/05/14 06:08:38;;;;;;;;;;;;;;;;;;8368552;28;27379;-65
2022/05/14 06:12:38;;;;;;;;;;;;;;;;;;8369385;28;27586;-65
2022/05/14 06:16:38;;;;;;;;;;;;;;;;;;8368430;28;28198;-65
2022/05/14 06:20:38;;;;;;;;;;;;;;;;;;8367584;28;28002;-65
2022/05/14 06:24:38;;;;;;;;;;;;;;;;;;8365874;28;29013;-65
2022/05/14 06:28:38;;;;;;;;;;;;;;;;;;8366951;28;27237;-66
2022/05/14 06:32:39;;;;;;;;;;;;;;;;;;8362289;28;29465;-65
2022/05/14 06:36:39;;;;;;;;;;;;;;;;;;8364468;28;27340;-65
2022/05/14 06:40:39;;;;;;;;;;;;;;;;;;8369711;28;27444;-65
2022/05/14 06:44:39;;;;;;;;;;;;;;;;;;8370901;28;27853;-65
2022/05/14 06:48:39;;;;;;;;;;;;;;;;;;8375112;28;27387;-65
2022/05/14 06:52:39;;;;;;;;;;;;;;;;;;8366831;28;28433;-65
2022/05/14 06:56:40;;;;;;;;;;;;;;;;;;8370551;28;27593;-65
2022/05/14 07:00:40;;;;;;;;;;;;;;;;;;8371221;28;28141;-66
2022/05/14 07:08:59;;;;;;;;;;;;;;;;;;8372534;28;27194;-65
2022/05/14 07:12:59;;;;;;;;;;;;;;;;;;8369627;28;27897;-66
2022/05/14 07:16:59;;;;;;;;;;;;;;;;;;8371374;28;28666;-65
2022/05/14 07:20:59;;;;;;;;;;;;;;;;;;8374057;28;27216;-66
2022/05/14 07:24:59;;;;;;;;;;;;;;;;;;8370804;28;28298;-66
2022/05/14 07:29:00;;;;;;;;;;;;;;;;;;8373629;28;30124;-66
2022/05/14 07:33:00;;;;;;;;;;;;;;;;;;8368707;28;27357;-65
2022/05/14 07:37:00;;;;;;;;;;;;;;;;;;8371245;28;28296;-65
2022/05/14 07:41:01;;;;;;;;;;;;;;;;;;8375299;28;29172;-65
2022/05/14 07:45:01;;;;;;;;;;;;;;;;;;8370233;28;27915;-65
2022/05/14 07:49:01;;;;;;;;;;;;;;;;;;8373720;28;27244;-66
2022/05/14 07:53:01;;;;;;;;;;;;;;;;;;8370276;28;27551;-65
2022/05/14 07:57:02;;;;;;;;;;;;;;;;;;8371982;28;27351;-65
2022/05/14 08:01:02;;;;;;;;;;;;;;;;;;8372175;28;27217;-65
2022/05/14 08:05:03;;;;;;;;;;;;;;;;;;8371071;28;27817;-65
2022/05/14 08:09:03;;;;;;;;;;;;;;;;;;8373559;28;27185;-65
2022/05/14 08:13:04;;;;;;;;;;;;;;;;;;8367358;28;27518;-65
2022/05/14 08:17:04;;;;;;;;;;;;;;;;;;8374039;28;27477;-65
2022/05/14 08:25:23;;;;;;;;;;;;;;;;;;8369324;28;27782;-65
2022/05/14 08:29:23;;;;;;;;;;;;;;;;;;8373737;28;29687;-65
2022/05/14 08:33:24;;;;;;;;;;;;;;;;;;8370097;28;27305;-65
2022/05/14 08:37:24;;;;;;;;;;;;;;;;;;8374619;28;27898;-65
2022/05/14 08:41:25;;;;;;;;;;;;;;;;;;8372493;28;27237;-65
2022/05/14 08:45:25;;;;;;;;;;;;;;;;;;8367067;28;29429;-65
2022/05/14 08:49:26;;;;;;;;;;;;;;;;;;8370809;28;27555;-64
2022/05/14 08:53:26;;;;;;;;;;;;;;;;;;8376826;28;28391;-65
2022/05/14 08:57:26;;;;;;;;;;;;;;;;;;8367344;28;27649;-65
2022/05/14 09:01:26;;;;;;;;;;;;;;;;;;8369606;28;28534;-65
2022/05/14 09:05:26;;;;;;;;;;;;;;;;;;8369014;28;27559;-65
2022/05/14 09:09:26;;;;;;;;;;;;;;;;;;8374948;28;27707;-65
2022/05/14 09:13:27;;;;;;;;;;;;;;;;;;8373160;28;30184;-64
2022/05/14 09:17:29;;;;;;;;;;;;;;;;;;8374657;28;27637;-64
2022/05/14 09:21:29;;;;;;;;;;;;;;;;;;8375696;28;28187;-64
2022/05/14 09:25:29;;;;;;;;;;;;;;;;;;8375158;28;27741;-64
2022/05/14 09:29:29;;;;;;;;;;;;;;;;;;8380784;28;27785;-64
2022/05/14 09:33:30;;;;;;;;;;;;;;;;;;8375660;28;27329;-65
2022/05/14 09:37:31;;;;;;;;;;;;;;;;;;8383395;28;28610;-64
2022/05/14 09:41:31;;;;;;;;;;;;;;;;;;8377686;28;27811;-64
2022/05/14 09:45:31;;;;;;;;;;;;;;;;;;8380631;28;28754;-64
2022/05/14 09:49:31;;;;;;;;;;;;;;;;;;8375639;28;27654;-65
2022/05/14 09:53:32;;;;;;;;;;;;;;;;;;8371861;28;27205;-65
2022/05/14 09:57:32;;;;;;;;;;;;;;;;;;8371907;28;27766;-65
2022/05/14 10:01:32;;;;;;;;;;;;;;;;;;8372825;28;27653;-65
2022/05/14 10:05:32;;;;;;;;;;;;;;;;;;8369449;28;27490;-64
2022/05/14 10:09:33;;;;;;;;;;;;;;;;;;8371835;28;27353;-65
2022/05/14 10:13:34;;;;;;;;;;;;;;;;;;8370556;28;27923;-65
2022/05/14 10:17:34;;;;;;;;;;;;;;;;;;8376807;28;27573;-64
2022/05/14 10:21:34;;;;;;;;;;;;;;;;;;8382930;28;28057;-64
2022/05/14 10:29:54;;;;;;;;;;;;;;;;;;8381111;28;27470;-66
2022/05/14 10:33:54;;;;;;;;;;;;;;;;;;8371378;28;27567;-64
2022/05/14 10:37:54;;;;;;;;;;;;;;;;;;8370609;28;28583;-64
2022/05/14 10:41:54;;;;;;;;;;;;;;;;;;8373983;28;27279;-65
2022/05/14 10:45:54;;;;;;;;;;;;;;;;;;8372927;28;27850;-65
2022/05/14 10:49:54;;;;;;;;;;;;;;;;;;8370348;28;27890;-65
2022/05/14 10:53:54;;;;;;;;;;;;;;;;;;8370982;28;27432;-65
2022/05/14 10:57:55;;;;;;;;;;;;;;;;;;8374882;28;28015;-65
2022/05/14 11:01:55;;;;;;;;;;;;;;;;;;8376412;28;27231;-65
2022/05/14 11:05:55;;;;;;;;;;;;;;;;;;8369388;28;28784;-64
2022/05/14 11:09:55;;;;;;;;;;;;;;;;;;8372621;28;27274;-65
2022/05/14 11:13:55;;;;;;;;;;;;;;;;;;8370011;28;28925;-65
2022/05/14 11:17:55;;;;;;;;;;;;;;;;;;8367471;28;27773;-65
2022/05/14 11:21:55;;;;;;;;;;;;;;;;;;8372363;28;27923;-65
2022/05/14 11:25:55;;;;;;;;;;;;;;;;;;8370213;28;27643;-64
2022/05/14 11:29:55;;;;;;;;;;;;;;;;;;8372362;28;27837;-65
2022/05/14 11:33:56;;;;;;;;;;;;;;;;;;8367915;28;28041;-65
2022/05/14 11:37:56;;;;;;;;;;;;;;;;;;8373817;28;27290;-65
2022/05/14 11:41:56;;;;;;;;;;;;;;;;;;8372515;28;27808;-65
2022/05/14 11:45:56;;;;;;;;;;;;;;;;;;8368581;28;27488;-65
2022/05/14 11:49:57;;;;;;;;;;;;;;;;;;8367021;28;28991;-65
2022/05/14 11:53:57;;;;;;;;;;;;;;;;;;8366412;28;27389;-65
2022/05/14 11:57:57;;;;;;;;;;;;;;;;;;8370936;28;27474;-64
2022/05/14 12:01:59;;;;;;;;;;;;;;;;;;8374222;28;27201;-65
2022/05/14 12:05:59;;;;;;;;;;;;;;;;;;8366858;28;27587;-65
2022/05/14 12:10:04;;;;;;;;;;;;;;;;;;8372988;28;28267;-65
2022/05/14 12:14:04;;;;;;;;;;;;;;;;;;8366341;28;27357;-64
2022/05/14 12:18:04;;;;;;;;;;;;;;;;;;8373421;28;27975;-65
2022/05/14 12:22:05;;;;;;;;;;;;;;;;;;8373056;28;27375;-65
2022/05/14 12:26:05;;;;;;;;;;;;;;;;;;8372063;28;27464;-65
2022/05/14 12:30:05;;;;;;;;;;;;;;;;;;8372805;28;27478;-65
2022/05/14 12:34:07;;;;;;;;;;;;;;;;;;8372443;28;28166;-65
2022/05/14 12:38:07;;;;;;;;;;;;;;;;;;8376260;28;27604;-65
2022/05/14 12:42:08;;;;;;;;;;;;;;;;;;8373597;28;27981;-65
2022/05/14 12:46:08;;;;;;;;;;;;;;;;;;8370059;28;27673;-64
2022/05/14 12:50:08;;;;;;;;;;;;;;;;;;8375214;28;27969;-65
2022/05/14 12:54:09;;;;;;;;;;;;;;;;;;8371249;28;27224;-64
2022/05/14 12:58:09;;;;;;;;;;;;;;;;;;8376142;28;27975;-64
2022/05/14 13:02:09;;;;;;;;;;;;;;;;;;8367814;28;27995;-64
2022/05/14 13:06:12;;;;;;;;;;;;;;;;;;8369895;28;27199;-64
2022/05/14 13:10:12;;;;;;;;;;;;;;;;;;8370466;28;27766;-65
2022/05/14 13:14:12;;;;;;;;;;;;;;;;;;8373415;28;27559;-65
2022/05/14 13:18:12;;;;;;;;;;;;;;;;;;8379022;28;27972;-65
2022/05/14 13:22:12;;;;;;;;;;;;;;;;;;8369662;28;27653;-64
2022/05/14 13:26:13;;;;;;;;;;;;;;;;;;8368185;28;27424;-64
2022/05/14 13:30:13;;;;;;;;;;;;;;;;;;8369908;28;27467;-64
2022/05/14 13:38:32;;;;;;;;;;;;;;;;;;8363761;28;27641;-65
2022/05/14 13:42:32;;;;;;;;;;;;;;;;;;8365439;28;27479;-65
2022/05/14 13:46:32;;;;;;;;;;;;;;;;;;8373400;28;27630;-65
2022/05/14 13:50:33;;;;;;;;;;;;;;;;;;8376057;28;28980;-65
2022/05/14 13:54:33;;;;;;;;;;;;;;;;;;8373362;28;28938;-65
2022/05/14 13:58:33;;;;;;;;;;;;;;;;;;8376311;28;28842;-65
2022/05/14 14:02:33;;;;;;;;;;;;;;;;;;8378944;28;27821;-65
2022/05/14 14:06:33;;;;;;;;;;;;;;;;;;8375047;28;27572;-65
2022/05/14 14:10:33;;;;;;;;;;;;;;;;;;8378674;28;27587;-65
2022/05/14 14:14:34;;;;;;;;;;;;;;;;;;8372392;28;27297;-65
2022/05/14 14:18:34;;;;;;;;;;;;;;;;;;8372090;28;28134;-65
2022/05/14 14:22:34;;;;;;;;;;;;;;;;;;8376537;28;27471;-64
2022/05/14 14:26:34;;;;;;;;;;;;;;;;;;8379442;28;27573;-65
2022/05/14 14:30:34;;;;;;;;;;;;;;;;;;8372410;28;28557;-65
2022/05/14 14:34:34;;;;;;;;;;;;;;;;;;8366871;28;27813;-65
2022/05/14 14:38:34;;;;;;;;;;;;;;;;;;8370324;28;27310;-65
2022/05/14 14:42:35;;;;;;;;;;;;;;;;;;8369335;28;27398;-65
2022/05/14 14:46:35;;;;;;;;;;;;;;;;;;8369245;28;28034;-64
2022/05/14 14:50:35;;;;;;;;;;;;;;;;;;8370481;28;29554;-64
2022/05/14 14:54:35;;;;;;;;;;;;;;;;;;8370117;28;27912;-65
2022/05/14 14:58:35;;;;;;;;;;;;;;;;;;8366578;28;27483;-65
2022/05/14 15:02:35;;;;;;;;;;;;;;;;;;8373798;28;27649;-65
2022/05/14 15:06:35;;;;;;;;;;;;;;;;;;8366378;28;27736;-65
2022/05/14 15:10:35;;;;;;;;;;;;;;;;;;8370688;28;27976;-65
2022/05/14 15:14:36;;;;;;;;;;;;;;;;;;8370149;28;28087;-64
2022/05/14 15:18:36;;;;;;;;;;;;;;;;;;8375729;28;27316;-64
2022/05/14 15:22:36;;;;;;;;;;;;;;;;;;8366400;28;28026;-65
2022/05/14 15:26:37;;;;;;;;;;;;;;;;;;8372899;28;28051;-65
2022/05/14 15:30:37;;;;;;;;;;;;;;;;;;8373586;28;27707;-65
2022/05/14 15:34:37;;;;;;;;;;;;;;;;;;8373699;28;27323;-64
2022/05/14 15:38:37;;;;;;;;;;;;;;;;;;8368325;28;28227;-65
2022/05/14 15:42:37;;;;;;;;;;;;;;;;;;8370040;28;27794;-65
2022/05/14 15:46:38;;;;;;;;;;;;;;;;;;8372965;28;28006;-65
2022/05/14 15:50:38;;;;;;;;;;;;;;;;;;8369594;28;27632;-65
2022/05/14 15:54:39;;;;;;;;;;;;;;;;;;8367948;28;28247;-65
2022/05/14 15:58:39;;;;;;;;;;;;;;;;;;8370337;28;28160;-65
2022/05/14 16:02:39;;;;;;;;;;;;;;;;;;8367583;28;27452;-65
2022/05/14 16:06:39;;;;;;;;;;;;;;;;;;8369462;28;28915;-65
2022/05/14 16:19:18;;;;;;;;;;;;;;;;;;8370661;28;27877;-65
2022/05/14 16:23:18;;;;;;;;;;;;;;;;;;8367458;28;28993;-65
2022/05/14 16:27:20;;;;;;;;;;;;;;;;;;8370792;28;48919;-65
2022/05/14 16:31:22;;;;;;;;;;;;;;;;;;8369235;28;27333;-65
2022/05/14 16:35:24;;;;;;;;;;;;;;;;;;8370080;28;27917;-65
2022/05/14 16:39:24;;;;;;;;;;;;;;;;;;8367741;28;27645;-64
2022/05/14 16:43:24;;;;;;;;;;;;;;;;;;8368270;28;28244;-65
2022/05/14 16:47:25;;;;;;;;;;;;;;;;;;8368357;28;28095;-64
2022/05/14 16:51:25;;;;;;;;;;;;;;;;;;8373544;28;27683;-65
2022/05/14 16:55:25;;;;;;;;;;;;;;;;;;8369851;28;27383;-65
2022/05/14 16:59:25;;;;;;;;;;;;;;;;;;8369309;28;27833;-65
2022/05/14 17:03:25;;;;;;;;;;;;;;;;;;8369873;28;27583;-65
2022/05/14 17:07:25;;;;;;;;;;;;;;;;;;8368486;28;27892;-65
2022/05/14 17:11:25;;;;;;;;;;;;;;;;;;8361115;28;27373;-65
2022/05/14 17:15:26;;;;;;;;;;;;;;;;;;8364275;28;27902;-65
2022/05/14 17:19:26;;;;;;;;;;;;;;;;;;8366837;28;28009;-65
2022/05/14 17:23:26;;;;;;;;;;;;;;;;;;8360617;28;29313;-65
2022/05/14 17:27:26;;;;;;;;;;;;;;;;;;8363978;28;27288;-65
2022/05/14 17:31:26;;;;;;;;;;;;;;;;;;8367724;28;27751;-65
2022/05/14 17:35:26;;;;;;;;;;;;;;;;;;8366305;28;28368;-65
2022/05/14 17:39:44;;;;;;;;;;;;;;;;;;8366219;28;27884;-64
2022/05/14 17:43:46;;;;;;;;;;;;;;;;;;8365596;28;28228;-64
2022/05/14 17:47:46;;;;;;;;;;;;;;;;;;8367889;28;27265;-65
2022/05/14 17:51:46;;;;;;;;;;;;;;;;;;8365656;28;27339;-64
2022/05/14 17:55:46;;;;;;;;;;;;;;;;;;8366354;28;27267;-65
2022/05/14 17:59:46;;;;;;;;;;;;;;;;;;8366326;28;27206;-65
2022/05/14 18:03:52;;;;;;;;;;;;;;;;;;8365515;28;27794;-65
2022/05/14 18:07:53;;;;;;;;;;;;;;;;;;8368405;28;27505;-61
2022/05/14 18:11:53;;;;;;;;;;;;;;;;;;8366300;28;27698;-64
2022/05/14 18:15:53;;;;;;;;;;;;;;;;;;8369080;28;28422;-64
2022/05/14 18:19:55;;;;;;;;;;;;;;;;;;8369175;28;27596;-64
2022/05/14 18:23:55;;;;;;;;;;;;;;;;;;8368591;28;27453;-64
2022/05/14 18:27:55;;;;;;;;;;;;;;;;;;8365274;28;27204;-64
2022/05/14 18:31:55;;;;;;;;;;;;;;;;;;8388777;28;28539;-65
2022/05/14 18:35:55;;;;;;;;;;;;;;;;;;8394766;27;27988;-65
2022/05/14 18:39:56;;;;;;;;;;;;;;;;;;8398867;28;27536;-64
2022/05/14 18:43:56;;;;;;;;;;;;;;;;;;8396067;28;28316;-64
2022/05/14 18:47:56;;;;;;;;;;;;;;;;;;8397736;28;27748;-65
2022/05/14 18:51:56;;;;;;;;;;;;;;;;;;8400726;28;27895;-64
2022/05/14 18:55:56;;;;;;;;;;;;;;;;;;8393706;28;28154;-64
2022/05/14 18:59:56;;;;;;;;;;;;;;;;;;8398615;28;27838;-64
2022/05/14 19:08:16;;;;;;;;;;;;;;;;;;8399429;28;27805;-64
2022/05/14 19:12:16;;;;;;;;;;;;;;;;;;8399042;28;27422;-64
2022/05/14 19:16:16;;;;;;;;;;;;;;;;;;8398887;28;27615;-65
2022/05/14 19:20:17;;;;;;;;;;;;;;;;;;8398199;28;27506;-64
2022/05/14 19:24:17;;;;;;;;;;;;;;;;;;8394876;28;27488;-64
2022/05/14 19:28:17;;;;;;;;;;;;;;;;;;8399164;28;27285;-65
2022/05/14 19:32:17;;;;;;;;;;;;;;;;;;8396214;28;28578;-65
2022/05/14 19:36:17;;;;;;;;;;;;;;;;;;8396373;28;27581;-65
2022/05/14 19:40:17;;;;;;;;;;;;;;;;;;8395416;28;28443;-65
2022/05/14 19:44:20;;;;;;;;;;;;;;;;;;8392074;28;27863;-64
2022/05/14 19:48:20;;;;;;;;;;;;;;;;;;8400570;28;29024;-65
2022/05/14 19:52:20;;;;;;;;;;;;;;;;;;8395746;28;27725;-65
2022/05/14 19:56:20;;;;;;;;;;;;;;;;;;8391778;28;29446;-65
2022/05/14 20:00:20;;;;;;;;;;;;;;;;;;8398607;28;27634;-65
2022/05/14 20:04:21;;;;;;;;;;;;;;;;;;8392173;28;27942;-65
2022/05/14 20:08:21;;;;;;;;;;;;;;;;;;8399618;28;27276;-64
2022/05/14 20:12:21;;;;;;;;;;;;;;;;;;8398768;28;27454;-64
2022/05/14 20:20:50;;;;;;;;;;;;;;;;;;8399229;28;27268;-64
2022/05/14 20:24:50;;;;;;;;;;;;;;;;;;8396647;28;27181;-65
2022/05/14 20:28:50;;;;;;;;;;;;;;;;;;8395615;28;28701;-65
2022/05/14 20:32:50;;;;;;;;;;;;;;;;;;8395348;28;27877;-64
2022/05/14 20:36:50;;;;;;;;;;;;;;;;;;8396532;28;27900;-65
2022/05/14 20:40:51;;;;;;;;;;;;;;;;;;8398344;28;27493;-64
2022/05/14 20:44:51;;;;;;;;;;;;;;;;;;8389112;28;27833;-65
2022/05/14 20:48:51;;;;;;;;;;;;;;;;;;8392306;28;27303;-65
2022/05/14 20:52:51;;;;;;;;;;;;;;;;;;8387943;28;29208;-65
2022/05/14 20:56:51;;;;;;;;;;;;;;;;;;8388402;27;27364;-65
2022/05/14 21:00:52;;;;;;;;;;;;;;;;;;8395327;28;28246;-65
2022/05/14 21:04:52;;;;;;;;;;;;;;;;;;8389921;28;27379;-65
2022/05/14 21:08:52;;;;;;;;;;;;;;;;;;8397056;28;28307;-65
2022/05/14 21:12:52;;;;;;;;;;;;;;;;;;8390996;28;28484;-65
2022/05/14 21:16:53;;;;;;;;;;;;;;;;;;8394582;28;27738;-64
2022/05/14 21:20:53;;;;;;;;;;;;;;;;;;8395588;28;27834;-64
2022/05/14 21:24:53;;;;;;;;;;;;;;;;;;8389567;28;27855;-64
2022/05/14 21:28:53;;;;;;;;;;;;;;;;;;8394466;28;27341;-64
2022/05/14 21:32:55;;;;;;;;;;;;;;;;;;8391938;28;27253;-64
2022/05/14 21:41:14;;;;;;;;;;;;;;;;;;8392140;28;27444;-64
2022/05/14 21:45:14;;;;;;;;;;;;;;;;;;8391605;28;27493;-65
2022/05/14 21:49:14;;;;;;;;;;;;;;;;;;8398838;28;28687;-65
2022/05/14 21:53:14;;;;;;;;;;;;;;;;;;8388794;28;27896;-64
2022/05/14 21:57:14;;;;;;;;;;;;;;;;;;8391160;28;28404;-64
2022/05/14 22:01:14;;;;;;;;;;;;;;;;;;8393903;28;27275;-64
2022/05/14 22:05:14;;;;;;;;;;;;;;;;;;8390292;28;28030;-64
2022/05/14 22:09:16;;;;;;;;;;;;;;;;;;8395131;28;28250;-65
2022/05/14 22:13:16;;;;;;;;;;;;;;;;;;8401062;28;28699;-64
2022/05/14 22:17:17;;;;;;;;;;;;;;;;;;8397359;28;27217;-64
2022/05/14 22:21:17;;;;;;;;;;;;;;;;;;8399465;28;28213;-64
2022/05/14 22:25:17;;;;;;;;;;;;;;;;;;8396436;28;27378;-64
2022/05/14 22:29:17;;;;;;;;;;;;;;;;;;8401029;28;27795;-65
2022/05/14 22:33:17;;;;;;;;;;;;;;;;;;8395324;28;28613;-65
2022/05/14 22:37:17;;;;;;;;;;;;;;;;;;8399116;28;28539;-64
2022/05/14 22:41:17;;;;;;;;;;;;;;;;;;8397421;28;27573;-64
2022/05/14 22:45:17;;;;;;;;;;;;;;;;;;8397558;28;27620;-64
2022/05/14 22:49:18;;;;;;;;;;;;;;;;;;8400607;28;28251;-64
2022/05/14 22:53:18;;;;;;;;;;;;;;;;;;8394325;28;27437;-64
2022/05/14 22:57:18;;;;;;;;;;;;;;;;;;8401125;28;29959;-64
2022/05/14 23:01:18;;;;;;;;;;;;;;;;;;8403094;28;28093;-65
2022/05/14 23:05:20;;;;;;;;;;;;;;;;;;8393024;28;28379;-64
2022/05/14 23:09:20;;;;;;;;;;;;;;;;;;8397954;28;27358;-65
2022/05/14 23:13:22;;;;;;;;;;;;;;;;;;8392702;28;28399;-64
2022/05/14 23:17:22;;;;;;;;;;;;;;;;;;8399920;28;27150;-64
2022/05/14 23:21:22;;;;;;;;;;;;;;;;;;8396501;28;28039;-64
2022/05/14 23:25:22;;;;;;;;;;;;;;;;;;8397383;28;27740;-64
2022/05/14 23:29:22;;;;;;;;;;;;;;;;;;8397958;28;27857;-64
2022/05/14 23:33:22;;;;;;;;;;;;;;;;;;8393952;28;27424;-64
2022/05/14 23:37:22;;;;;;;;;;;;;;;;;;8397067;28;27523;-64
2022/05/14 23:41:23;;;;;;;;;;;;;;;;;;8395549;28;27659;-64
2022/05/14 23:45:23;;;;;;;;;;;;;;;;;;8392996;28;28450;-64
2022/05/14 23:49:23;;;;;;;;;;;;;;;;;;8396905;28;29343;-64
2022/05/14 23:53:23;;;;;;;;;;;;;;;;;;8392875;28;28050;-64
2022/05/14 23:57:23;;;;;;;;;;;;;;;;;;8397559;28;28206;-64
